Stephen Scott — WCW8842 — position and weather

sailwx.info

Track history (hours):
 
Tides and Currents Weather Stations Pressure Air Temp Water Temp Dewpoint Dewpoint Depression Visibility Wind Speed Wind Dir Waves Ship Positions

Stephen Scott

Owner: H A REINAUER INC, STATEN ISLAND, NY. More information available from US FCC via Universal Licensing System and Coast Guard Vessel Documentation Center.

Last reported at 2014-Oct-20 17:33 UTC. Time now 2014-Oct-20 18:05 UTC.
Position N 40°40' W 074°02'.

Length 30 m; draft 2.5 m.

Type: Towing. MMSI: 366245490.

Date/timePositionNaut miles runAvg speedWind from/ knotsBaromVisibWave heightAir tempDewpointWater temp
2014-Oct-20 17:33N 40°40' W 074°02'0 0.1
2014-Oct-20 16:33N 40°40' W 074°02'0 0.0
2014-Oct-20 15:33N 40°40' W 074°02'0 0.0
2014-Oct-20 14:33N 40°40' W 074°02'0 0.1
2014-Oct-20 13:33N 40°40' W 074°02'9 8.8
2014-Oct-20 12:33N 40°47' W 073°55'7 7.4
2014-Oct-20 11:33N 40°50' W 073°46'13 9.4
2014-Oct-20 10:12N 40°57' W 073°33'6 9.6
2014-Oct-20 09:33N 40°60' W 073°25'9 9.4
2014-Oct-20 08:33N 41°03' W 073°14'9 8.9
2014-Oct-20 07:33N 41°07' W 073°03'9 8.2
2014-Oct-20 06:26N 41°14' W 072°55'4 0.6
2014-Oct-20 00:03N 41°18' W 072°54'0 0.0
2014-Oct-19 21:08N 41°18' W 072°54'0 0.2
2014-Oct-19 18:33N 41°17' W 072°55'7 6.5
2014-Oct-19 17:33N 41°11' W 072°56'9 8.9
2014-Oct-19 16:32N 41°06' W 073°05'9 8.7
2014-Oct-19 15:33N 41°04' W 073°17'19 8.6
2014-Oct-19 13:22N 40°57' W 073°39'14 7.1
2014-Oct-19 11:28N 40°48' W 073°54'5 5.8
2014-Oct-19 10:33N 40°44' W 073°58'6 5.7
2014-Oct-19 09:33N 40°40' W 074°03'0 0.1
2014-Oct-19 08:33N 40°40' W 074°03'0 0.1
2014-Oct-19 07:33N 40°40' W 074°03'0 0.1
2014-Oct-19 06:33N 40°40' W 074°03'0 0.0
2014-Oct-19 05:33N 40°40' W 074°03'0 0.0
2014-Oct-19 04:33N 40°40' W 074°03'3 3.0
2014-Oct-19 03:33N 40°39' W 074°07'1 1.0
2014-Oct-19 02:33N 40°38' W 074°08'3 3.3
2014-Oct-19 01:32N 40°38' W 074°12'3 2.6
2014-Oct-19 00:33N 40°38' W 074°09'3 2.3
2014-Oct-18 23:28N 40°38' W 074°12'7 1.0
2014-Oct-18 16:29N 40°40' W 074°03'2 1.7
2014-Oct-18 15:33N 40°40' W 074°01'0 0.1
2014-Oct-18 14:33N 40°40' W 074°01'0 0.1
2014-Oct-18 13:31N 40°40' W 074°01'4 4.6
2014-Oct-18 12:33N 40°39' W 074°07'0 0.0
2014-Oct-18 11:30N 40°39' W 074°07'0 0.0
2014-Oct-18 10:13N 40°39' W 074°07'0 0.3
2014-Oct-18 09:26N 40°39' W 074°06'3 3.3
2014-Oct-18 08:33N 40°39' W 074°03'0 0.0
2014-Oct-18 07:33N 40°39' W 074°03'0 0.0
2014-Oct-18 06:33N 40°39' W 074°03'0 0.0
2014-Oct-18 05:33N 40°39' W 074°03'0 0.1
2014-Oct-18 04:33N 40°39' W 074°03'0 0.0
2014-Oct-18 03:33N 40°39' W 074°03'0 0.0
2014-Oct-18 02:33N 40°39' W 074°03'0 0.1
2014-Oct-18 01:33N 40°39' W 074°03'0 0.0
2014-Oct-18 00:33N 40°39' W 074°03'0 0.1
2014-Oct-17 23:33N 40°39' W 074°03'0 0.1
2014-Oct-17 22:33N 40°39' W 074°03'0 0.0
2014-Oct-17 21:33N 40°39' W 074°03'0 0.0
2014-Oct-17 20:33N 40°39' W 074°03'0 0.0
2014-Oct-17 19:33N 40°39' W 074°03'0 0.0
2014-Oct-17 18:33N 40°39' W 074°03'3 3.2
2014-Oct-17 17:30N 40°36' W 074°02'3 3.4
2014-Oct-17 16:33N 40°32' W 074°01'7 6.9
2014-Oct-17 15:33N 40°29' W 073°54'8 7.8
2014-Oct-17 14:28N 40°21' W 073°54'8 8.3
2014-Oct-17 13:28N 40°12' W 073°55'8 8.3
2014-Oct-17 12:28N 40°04' W 073°56'8 8.2
2014-Oct-17 11:33N 39°56' W 073°57'8 8.2
2014-Oct-17 10:33N 39°48' W 073°58'8 7.9
2014-Oct-17 09:33N 39°41' W 074°01'68 5.1
2014-Oct-16 20:11N 39°20' W 075°25'4 6.4
2014-Oct-16 19:33N 39°23' W 075°29'42 5.7
2014-Oct-16 12:13N 39°09' W 076°19'6 9.0
2014-Oct-16 11:30N 39°11' W 076°27'6 6.3
2014-Oct-16 10:33N 39°14' W 076°34'3 2.9
2014-Oct-16 09:33N 39°17' W 076°36'0 0.0
2014-Oct-16 08:33N 39°17' W 076°36'0 0.0
2014-Oct-16 07:33N 39°17' W 076°36'0 0.0
2014-Oct-16 06:33N 39°17' W 076°36'0 0.0
2014-Oct-16 05:33N 39°17' W 076°36'0 0.0
2014-Oct-16 04:33N 39°17' W 076°36'0 0.0
2014-Oct-16 03:33N 39°17' W 076°36'0 0.0
2014-Oct-16 02:33N 39°17' W 076°36'0 0.0
2014-Oct-16 01:33N 39°17' W 076°36'0 0.0
2014-Oct-16 00:33N 39°17' W 076°36'0 0.0
2014-Oct-15 23:33N 39°17' W 076°36'0 0.0
2014-Oct-15 22:33N 39°17' W 076°36'0 0.0
2014-Oct-15 21:33N 39°17' W 076°36'0 0.0
2014-Oct-15 20:33N 39°17' W 076°36'0 0.0
2014-Oct-15 19:33N 39°17' W 076°36'0 0.0
2014-Oct-15 18:33N 39°17' W 076°36'0 0.0
2014-Oct-15 17:33N 39°17' W 076°36'0 0.0
2014-Oct-15 16:33N 39°17' W 076°36'0 0.0
2014-Oct-15 15:33N 39°17' W 076°36'0 0.0
2014-Oct-15 14:33N 39°17' W 076°36'0 0.0
2014-Oct-15 13:33N 39°17' W 076°36'0 0.0
2014-Oct-15 12:33N 39°17' W 076°36'0 0.0
2014-Oct-15 11:33N 39°17' W 076°36'0 0.0
2014-Oct-15 10:33N 39°17' W 076°36'0 0.0
2014-Oct-15 09:33N 39°17' W 076°36'0 0.0
2014-Oct-15 08:33N 39°17' W 076°36'0 0.0
2014-Oct-15 07:33N 39°17' W 076°36'0 0.0
2014-Oct-15 06:33N 39°17' W 076°36'0 0.0
2014-Oct-15 05:33N 39°17' W 076°36'0 0.0
2014-Oct-15 04:33N 39°17' W 076°36'0 0.0
2014-Oct-15 03:33N 39°17' W 076°36'0 0.0
2014-Oct-15 02:33N 39°17' W 076°36'0 0.0
2014-Oct-15 01:33N 39°17' W 076°36'0 0.0
2014-Oct-15 00:33N 39°17' W 076°36'3 2.9
2014-Oct-14 23:32N 39°14' W 076°34'3 2.7
2014-Oct-14 22:33N 39°13' W 076°31'12 5.6
2014-Oct-14 20:28N 39°12' W 076°16'100 4.0
2014-Oct-13 19:26N 39°30' W 074°09'5 6.2
2014-Oct-13 18:33N 39°34' W 074°06'6 6.3
2014-Oct-13 17:33N 39°40' W 074°02'6 6.2
2014-Oct-13 16:33N 39°46' W 073°58'6 6.2
2014-Oct-13 15:33N 39°52' W 073°57'7 6.3
2014-Oct-13 14:30N 39°58' W 073°57'6 6.3
2014-Oct-13 13:31N 40°05' W 073°56'6 6.1
2014-Oct-13 12:33N 40°10' W 073°55'6 6.3
2014-Oct-13 11:33N 40°17' W 073°55'6 6.4
2014-Oct-13 10:33N 40°23' W 073°54'13 6.2
2014-Oct-13 08:33N 40°34' W 074°02'5 5.3
2014-Oct-13 07:32N 40°39' W 074°05'6 6.2
2014-Oct-13 06:33N 40°36' W 074°12'4 3.5
2014-Oct-13 05:26N 40°33' W 074°15'3 0.8
2014-Oct-13 01:30N 40°35' W 074°13'0 0.4
2014-Oct-13 00:30N 40°35' W 074°13'1 1.2
2014-Oct-12 23:33N 40°36' W 074°12'0 0.0
2014-Oct-12 22:25N 40°36' W 074°12'0 0.0
2014-Oct-12 21:30N 40°36' W 074°12'5 1.6
2014-Oct-12 18:13N 40°39' W 074°07'4 2.3
2014-Oct-12 16:32N 40°38' W 074°12'6 5.6
2014-Oct-12 15:24N 40°33' W 074°15'3 3.2
2014-Oct-12 14:30N 40°35' W 074°13'7 6.1
2014-Oct-12 13:23N 40°39' W 074°06'6 7.5
2014-Oct-12 12:31N 40°43' W 073°59'7 6.9
2014-Oct-12 11:32N 40°48' W 073°53'6 6.6
2014-Oct-12 10:33N 40°51' W 073°46'9 8.6
2014-Oct-12 09:33N 40°56' W 073°36'9 8.7
2014-Oct-12 08:33N 40°60' W 073°26'9 8.9
2014-Oct-12 07:33N 41°03' W 073°15'9 9.1
2014-Oct-12 06:33N 41°07' W 073°04'9 9.4
2014-Oct-12 05:33N 41°13' W 072°54'5 4.5
2014-Oct-12 04:33N 41°17' W 072°54'0 0.3
2014-Oct-12 03:33N 41°18' W 072°54'0 0.0
2014-Oct-12 02:33N 41°18' W 072°54'0 0.0
2014-Oct-12 01:33N 41°18' W 072°54'0 0.0
2014-Oct-12 00:30N 41°18' W 072°54'0 0.0
2014-Oct-11 23:26N 41°18' W 072°54'0 0.0
2014-Oct-11 22:30N 41°18' W 072°54'0 0.0
2014-Oct-11 21:29N 41°18' W 072°54'0 0.0
2014-Oct-11 20:32N 41°18' W 072°54'0 0.0
2014-Oct-11 19:31N 41°18' W 072°54'0 0.0
2014-Oct-11 18:33N 41°18' W 072°54'3 3.3
2014-Oct-11 17:33N 41°15' W 072°55'7 6.8
2014-Oct-11 16:33N 41°09' W 072°60'9 6.7
2014-Oct-11 15:11N 41°06' W 073°11'5 7.2
2014-Oct-11 14:33N 41°04' W 073°17'8 7.5
2014-Oct-11 13:33N 40°60' W 073°25'24 7.8
2014-Oct-11 10:27N 40°48' W 073°53'5 5.9
2014-Oct-11 09:33N 40°44' W 073°58'5 5.2
2014-Oct-11 08:33N 40°40' W 074°02'1 0.6
2014-Oct-11 07:33N 40°40' W 074°03'0 0.2
2014-Oct-11 06:33N 40°40' W 074°03'1 1.1
2014-Oct-11 05:33N 40°39' W 074°04'7 6.9
2014-Oct-11 04:31N 40°36' W 074°12'1 0.5
2014-Oct-11 02:28N 40°37' W 074°12'1 1.1
2014-Oct-11 01:33N 40°38' W 074°12'0 0.2
2014-Oct-11 00:33N 40°38' W 074°12'1 0.8
2014-Oct-10 23:33N 40°37' W 074°12'1 1.3
2014-Oct-10 22:33N 40°36' W 074°12'0 0.0
2014-Oct-10 21:32N 40°36' W 074°12'7 6.7
2014-Oct-10 20:33N 40°39' W 074°05'3 3.0
2014-Oct-10 19:33N 40°40' W 074°01'0 0.0
2014-Oct-10 18:33N 40°40' W 074°01'  
Track history (hours):
 
Tides and Currents Weather Stations Pressure Air Temp Water Temp Dewpoint Dewpoint Depression Visibility Wind Speed Wind Dir Waves Ship Positions

Stephen Scott

Owner: H A REINAUER INC, STATEN ISLAND, NY. More information available from US FCC via Universal Licensing System and Coast Guard Vessel Documentation Center.

Last reported at 2014-Oct-20 17:33 UTC. Time now 2014-Oct-20 18:05 UTC.
Position N 40°40' W 074°02'.

Length 30 m; draft 2.5 m.

Type: Towing. MMSI: 366245490.

Date/timePositionNaut miles runAvg speedWind from/ knotsBaromVisibWave heightAir tempDewpointWater temp
2014-Oct-20 17:33N 40°40' W 074°02'0 0.1
2014-Oct-20 16:33N 40°40' W 074°02'0 0.0
2014-Oct-20 15:33N 40°40' W 074°02'0 0.0
2014-Oct-20 14:33N 40°40' W 074°02'0 0.1
2014-Oct-20 13:33N 40°40' W 074°02'9 8.8
2014-Oct-20 12:33N 40°47' W 073°55'7 7.4
2014-Oct-20 11:33N 40°50' W 073°46'13 9.4
2014-Oct-20 10:12N 40°57' W 073°33'6 9.6
2014-Oct-20 09:33N 40°60' W 073°25'9 9.4
2014-Oct-20 08:33N 41°03' W 073°14'9 8.9
2014-Oct-20 07:33N 41°07' W 073°03'9 8.2
2014-Oct-20 06:26N 41°14' W 072°55'4 0.6
2014-Oct-20 00:03N 41°18' W 072°54'0 0.0
2014-Oct-19 21:08N 41°18' W 072°54'0 0.2
2014-Oct-19 18:33N 41°17' W 072°55'7 6.5
2014-Oct-19 17:33N 41°11' W 072°56'9 8.9
2014-Oct-19 16:32N 41°06' W 073°05'9 8.7
2014-Oct-19 15:33N 41°04' W 073°17'19 8.6
2014-Oct-19 13:22N 40°57' W 073°39'14 7.1
2014-Oct-19 11:28N 40°48' W 073°54'5 5.8
2014-Oct-19 10:33N 40°44' W 073°58'6 5.7
2014-Oct-19 09:33N 40°40' W 074°03'0 0.1
2014-Oct-19 08:33N 40°40' W 074°03'0 0.1
2014-Oct-19 07:33N 40°40' W 074°03'0 0.1
2014-Oct-19 06:33N 40°40' W 074°03'0 0.0
2014-Oct-19 05:33N 40°40' W 074°03'0 0.0
2014-Oct-19 04:33N 40°40' W 074°03'3 3.0
2014-Oct-19 03:33N 40°39' W 074°07'1 1.0
2014-Oct-19 02:33N 40°38' W 074°08'3 3.3
2014-Oct-19 01:32N 40°38' W 074°12'3 2.6
2014-Oct-19 00:33N 40°38' W 074°09'3 2.3
2014-Oct-18 23:28N 40°38' W 074°12'7 1.0
2014-Oct-18 16:29N 40°40' W 074°03'2 1.7
2014-Oct-18 15:33N 40°40' W 074°01'0 0.1
2014-Oct-18 14:33N 40°40' W 074°01'0 0.1
2014-Oct-18 13:31N 40°40' W 074°01'4 4.6
2014-Oct-18 12:33N 40°39' W 074°07'0 0.0
2014-Oct-18 11:30N 40°39' W 074°07'0 0.0
2014-Oct-18 10:13N 40°39' W 074°07'0 0.3
2014-Oct-18 09:26N 40°39' W 074°06'3 3.3
2014-Oct-18 08:33N 40°39' W 074°03'0 0.0
2014-Oct-18 07:33N 40°39' W 074°03'0 0.0
2014-Oct-18 06:33N 40°39' W 074°03'0 0.0
2014-Oct-18 05:33N 40°39' W 074°03'0 0.1
2014-Oct-18 04:33N 40°39' W 074°03'0 0.0
2014-Oct-18 03:33N 40°39' W 074°03'0 0.0
2014-Oct-18 02:33N 40°39' W 074°03'0 0.1
2014-Oct-18 01:33N 40°39' W 074°03'0 0.0
2014-Oct-18 00:33N 40°39' W 074°03'0 0.1
2014-Oct-17 23:33N 40°39' W 074°03'0 0.1
2014-Oct-17 22:33N 40°39' W 074°03'0 0.0
2014-Oct-17 21:33N 40°39' W 074°03'0 0.0
2014-Oct-17 20:33N 40°39' W 074°03'0 0.0
2014-Oct-17 19:33N 40°39' W 074°03'0 0.0
2014-Oct-17 18:33N 40°39' W 074°03'3 3.2
2014-Oct-17 17:30N 40°36' W 074°02'3 3.4
2014-Oct-17 16:33N 40°32' W 074°01'7 6.9
2014-Oct-17 15:33N 40°29' W 073°54'8 7.8
2014-Oct-17 14:28N 40°21' W 073°54'8 8.3
2014-Oct-17 13:28N 40°12' W 073°55'8 8.3
2014-Oct-17 12:28N 40°04' W 073°56'8 8.2
2014-Oct-17 11:33N 39°56' W 073°57'8 8.2
2014-Oct-17 10:33N 39°48' W 073°58'8 7.9
2014-Oct-17 09:33N 39°41' W 074°01'68 5.1
2014-Oct-16 20:11N 39°20' W 075°25'4 6.4
2014-Oct-16 19:33N 39°23' W 075°29'42 5.7
2014-Oct-16 12:13N 39°09' W 076°19'6 9.0
2014-Oct-16 11:30N 39°11' W 076°27'6 6.3
2014-Oct-16 10:33N 39°14' W 076°34'3 2.9
2014-Oct-16 09:33N 39°17' W 076°36'0 0.0
2014-Oct-16 08:33N 39°17' W 076°36'0 0.0
2014-Oct-16 07:33N 39°17' W 076°36'0 0.0
2014-Oct-16 06:33N 39°17' W 076°36'0 0.0
2014-Oct-16 05:33N 39°17' W 076°36'0 0.0
2014-Oct-16 04:33N 39°17' W 076°36'0 0.0
2014-Oct-16 03:33N 39°17' W 076°36'0 0.0
2014-Oct-16 02:33N 39°17' W 076°36'0 0.0
2014-Oct-16 01:33N 39°17' W 076°36'0 0.0
2014-Oct-16 00:33N 39°17' W 076°36'0 0.0
2014-Oct-15 23:33N 39°17' W 076°36'0 0.0
2014-Oct-15 22:33N 39°17' W 076°36'0 0.0
2014-Oct-15 21:33N 39°17' W 076°36'0 0.0
2014-Oct-15 20:33N 39°17' W 076°36'0 0.0
2014-Oct-15 19:33N 39°17' W 076°36'0 0.0
2014-Oct-15 18:33N 39°17' W 076°36'0 0.0
2014-Oct-15 17:33N 39°17' W 076°36'0 0.0
2014-Oct-15 16:33N 39°17' W 076°36'0 0.0
2014-Oct-15 15:33N 39°17' W 076°36'0 0.0
2014-Oct-15 14:33N 39°17' W 076°36'0 0.0
2014-Oct-15 13:33N 39°17' W 076°36'0 0.0
2014-Oct-15 12:33N 39°17' W 076°36'0 0.0
2014-Oct-15 11:33N 39°17' W 076°36'0 0.0
2014-Oct-15 10:33N 39°17' W 076°36'0 0.0
2014-Oct-15 09:33N 39°17' W 076°36'0 0.0
2014-Oct-15 08:33N 39°17' W 076°36'0 0.0
2014-Oct-15 07:33N 39°17' W 076°36'0 0.0
2014-Oct-15 06:33N 39°17' W 076°36'0 0.0
2014-Oct-15 05:33N 39°17' W 076°36'0 0.0
2014-Oct-15 04:33N 39°17' W 076°36'0 0.0
2014-Oct-15 03:33N 39°17' W 076°36'0 0.0
2014-Oct-15 02:33N 39°17' W 076°36'0 0.0
2014-Oct-15 01:33N 39°17' W 076°36'0 0.0
2014-Oct-15 00:33N 39°17' W 076°36'3 2.9
2014-Oct-14 23:32N 39°14' W 076°34'3 2.7
2014-Oct-14 22:33N 39°13' W 076°31'12 5.6
2014-Oct-14 20:28N 39°12' W 076°16'100 4.0
2014-Oct-13 19:26N 39°30' W 074°09'5 6.2
2014-Oct-13 18:33N 39°34' W 074°06'6 6.3
2014-Oct-13 17:33N 39°40' W 074°02'6 6.2
2014-Oct-13 16:33N 39°46' W 073°58'6 6.2
2014-Oct-13 15:33N 39°52' W 073°57'7 6.3
2014-Oct-13 14:30N 39°58' W 073°57'6 6.3
2014-Oct-13 13:31N 40°05' W 073°56'6 6.1
2014-Oct-13 12:33N 40°10' W 073°55'6 6.3
2014-Oct-13 11:33N 40°17' W 073°55'6 6.4
2014-Oct-13 10:33N 40°23' W 073°54'13 6.2
2014-Oct-13 08:33N 40°34' W 074°02'5 5.3
2014-Oct-13 07:32N 40°39' W 074°05'6 6.2
2014-Oct-13 06:33N 40°36' W 074°12'4 3.5
2014-Oct-13 05:26N 40°33' W 074°15'3 0.8
2014-Oct-13 01:30N 40°35' W 074°13'0 0.4
2014-Oct-13 00:30N 40°35' W 074°13'1 1.2
2014-Oct-12 23:33N 40°36' W 074°12'0 0.0
2014-Oct-12 22:25N 40°36' W 074°12'0 0.0
2014-Oct-12 21:30N 40°36' W 074°12'5 1.6
2014-Oct-12 18:13N 40°39' W 074°07'4 2.3
2014-Oct-12 16:32N 40°38' W 074°12'6 5.6
2014-Oct-12 15:24N 40°33' W 074°15'3 3.2
2014-Oct-12 14:30N 40°35' W 074°13'7 6.1
2014-Oct-12 13:23N 40°39' W 074°06'6 7.5
2014-Oct-12 12:31N 40°43' W 073°59'7 6.9
2014-Oct-12 11:32N 40°48' W 073°53'6 6.6
2014-Oct-12 10:33N 40°51' W 073°46'9 8.6
2014-Oct-12 09:33N 40°56' W 073°36'9 8.7
2014-Oct-12 08:33N 40°60' W 073°26'9 8.9
2014-Oct-12 07:33N 41°03' W 073°15'9 9.1
2014-Oct-12 06:33N 41°07' W 073°04'9 9.4
2014-Oct-12 05:33N 41°13' W 072°54'5 4.5
2014-Oct-12 04:33N 41°17' W 072°54'0 0.3
2014-Oct-12 03:33N 41°18' W 072°54'0 0.0
2014-Oct-12 02:33N 41°18' W 072°54'0 0.0
2014-Oct-12 01:33N 41°18' W 072°54'0 0.0
2014-Oct-12 00:30N 41°18' W 072°54'0 0.0
2014-Oct-11 23:26N 41°18' W 072°54'0 0.0
2014-Oct-11 22:30N 41°18' W 072°54'0 0.0
2014-Oct-11 21:29N 41°18' W 072°54'0 0.0
2014-Oct-11 20:32N 41°18' W 072°54'0 0.0
2014-Oct-11 19:31N 41°18' W 072°54'0 0.0
2014-Oct-11 18:33N 41°18' W 072°54'3 3.3
2014-Oct-11 17:33N 41°15' W 072°55'7 6.8
2014-Oct-11 16:33N 41°09' W 072°60'9 6.7
2014-Oct-11 15:11N 41°06' W 073°11'5 7.2
2014-Oct-11 14:33N 41°04' W 073°17'8 7.5
2014-Oct-11 13:33N 40°60' W 073°25'24 7.8
2014-Oct-11 10:27N 40°48' W 073°53'5 5.9
2014-Oct-11 09:33N 40°44' W 073°58'5 5.2
2014-Oct-11 08:33N 40°40' W 074°02'1 0.6
2014-Oct-11 07:33N 40°40' W 074°03'0 0.2
2014-Oct-11 06:33N 40°40' W 074°03'1 1.1
2014-Oct-11 05:33N 40°39' W 074°04'7 6.9
2014-Oct-11 04:31N 40°36' W 074°12'1 0.5
2014-Oct-11 02:28N 40°37' W 074°12'1 1.1
2014-Oct-11 01:33N 40°38' W 074°12'0 0.2
2014-Oct-11 00:33N 40°38' W 074°12'1 0.8
2014-Oct-10 23:33N 40°37' W 074°12'1 1.3
2014-Oct-10 22:33N 40°36' W 074°12'0 0.0
2014-Oct-10 21:32N 40°36' W 074°12'7 6.7
2014-Oct-10 20:33N 40°39' W 074°05'3 3.0
2014-Oct-10 19:33N 40°40' W 074°01'0 0.0
2014-Oct-10 18:33N 40°40' W 074°01'  

Dump ship's entire track history